sensor_id;sensor_type;location;lat;lon;timestamp;P1;durP1;ratioP1;P2;durP2;ratioP2
4311;SDS011;2169;49.086;9.284;2022-08-25T00:02:01;5.23;;;2.43;;
4311;SDS011;2169;49.086;9.284;2022-08-25T00:04:30;4.47;;;2.80;;
4311;SDS011;2169;49.086;9.284;2022-08-25T00:06:59;3.30;;;3.00;;
4311;SDS011;2169;49.086;9.284;2022-08-25T00:09:27;3.40;;;2.37;;
4311;SDS011;2169;49.086;9.284;2022-08-25T00:11:54;12.80;;;2.97;;
4311;SDS011;2169;49.086;9.284;2022-08-25T00:14:22;2.30;;;2.20;;
4311;SDS011;2169;49.086;9.284;2022-08-25T00:16:52;1.83;;;1.70;;
4311;SDS011;2169;49.086;9.284;2022-08-25T00:19:20;3.07;;;2.87;;
4311;SDS011;2169;49.086;9.284;2022-08-25T00:21:48;4.57;;;3.27;;
4311;SDS011;2169;49.086;9.284;2022-08-25T00:24:16;4.93;;;3.00;;
4311;SDS011;2169;49.086;9.284;2022-08-25T00:26:45;3.07;;;2.10;;
4311;SDS011;2169;49.086;9.284;2022-08-25T00:29:13;9.07;;;3.33;;
4311;SDS011;2169;49.086;9.284;2022-08-25T00:31:41;2.53;;;2.23;;
4311;SDS011;2169;49.086;9.284;2022-08-25T00:34:11;4.00;;;2.40;;
4311;SDS011;2169;49.086;9.284;2022-08-25T00:36:41;4.07;;;2.40;;
4311;SDS011;2169;49.086;9.284;2022-08-25T00:39:08;1.83;;;1.73;;
4311;SDS011;2169;49.086;9.284;2022-08-25T00:41:36;3.47;;;2.70;;
4311;SDS011;2169;49.086;9.284;2022-08-25T00:44:06;3.77;;;2.20;;
4311;SDS011;2169;49.086;9.284;2022-08-25T00:46:35;4.60;;;3.20;;
4311;SDS011;2169;49.086;9.284;2022-08-25T00:49:05;3.73;;;3.43;;
4311;SDS011;2169;49.086;9.284;2022-08-25T00:51:38;3.63;;;3.33;;
4311;SDS011;2169;49.086;9.284;2022-08-25T00:54:08;4.33;;;2.50;;
4311;SDS011;2169;49.086;9.284;2022-08-25T00:56:40;3.87;;;2.97;;
4311;SDS011;2169;49.086;9.284;2022-08-25T00:59:08;4.93;;;3.23;;
4311;SDS011;2169;49.086;9.284;2022-08-25T01:01:35;8.73;;;2.20;;
4311;SDS011;2169;49.086;9.284;2022-08-25T01:04:02;3.90;;;2.30;;
4311;SDS011;2169;49.086;9.284;2022-08-25T01:06:29;2.17;;;1.97;;
4311;SDS011;2169;49.086;9.284;2022-08-25T01:09:03;3.03;;;1.80;;
4311;SDS011;2169;49.086;9.284;2022-08-25T01:11:31;2.07;;;1.90;;
4311;SDS011;2169;49.086;9.284;2022-08-25T01:13:58;2.53;;;2.20;;
4311;SDS011;2169;49.086;9.284;2022-08-25T01:16:30;4.20;;;2.30;;
4311;SDS011;2169;49.086;9.284;2022-08-25T01:18:58;2.20;;;2.00;;
4311;SDS011;2169;49.086;9.284;2022-08-25T01:21:27;3.00;;;1.93;;
4311;SDS011;2169;49.086;9.284;2022-08-25T01:23:57;5.50;;;3.17;;
4311;SDS011;2169;49.086;9.284;2022-08-25T01:26:25;2.80;;;2.60;;
4311;SDS011;2169;49.086;9.284;2022-08-25T01:28:54;3.73;;;3.07;;
4311;SDS011;2169;49.086;9.284;2022-08-25T01:31:39;4.90;;;2.60;;
4311;SDS011;2169;49.086;9.284;2022-08-25T01:34:07;3.20;;;2.87;;
4311;SDS011;2169;49.086;9.284;2022-08-25T01:36:38;3.53;;;2.93;;
4311;SDS011;2169;49.086;9.284;2022-08-25T01:39:05;3.13;;;2.80;;
4311;SDS011;2169;49.086;9.284;2022-08-25T01:41:34;3.23;;;2.53;;
4311;SDS011;2169;49.086;9.284;2022-08-25T01:44:06;3.70;;;3.10;;
4311;SDS011;2169;49.086;9.284;2022-08-25T01:46:33;5.07;;;3.57;;
4311;SDS011;2169;49.086;9.284;2022-08-25T01:49:00;13.60;;;4.00;;
4311;SDS011;2169;49.086;9.284;2022-08-25T01:51:28;3.20;;;2.70;;
4311;SDS011;2169;49.086;9.284;2022-08-25T01:54:01;5.07;;;4.30;;
4311;SDS011;2169;49.086;9.284;2022-08-25T01:56:27;3.33;;;3.03;;
4311;SDS011;2169;49.086;9.284;2022-08-25T01:58:55;4.70;;;3.13;;
4311;SDS011;2169;49.086;9.284;2022-08-25T02:01:22;4.17;;;3.77;;
4311;SDS011;2169;49.086;9.284;2022-08-25T02:03:51;2.63;;;2.40;;
4311;SDS011;2169;49.086;9.284;2022-08-25T02:06:20;4.30;;;3.30;;
4311;SDS011;2169;49.086;9.284;2022-08-25T02:08:49;6.53;;;3.50;;
4311;SDS011;2169;49.086;9.284;2022-08-25T02:11:19;4.27;;;3.97;;
4311;SDS011;2169;49.086;9.284;2022-08-25T02:13:48;3.50;;;3.20;;
4311;SDS011;2169;49.086;9.284;2022-08-25T02:16:18;4.07;;;3.17;;
4311;SDS011;2169;49.086;9.284;2022-08-25T02:18:48;4.00;;;2.97;;
4311;SDS011;2169;49.086;9.284;2022-08-25T02:21:15;4.90;;;4.27;;
4311;SDS011;2169;49.086;9.284;2022-08-25T02:23:42;5.80;;;3.53;;
4311;SDS011;2169;49.086;9.284;2022-08-25T02:26:09;4.40;;;3.27;;
4311;SDS011;2169;49.086;9.284;2022-08-25T02:28:39;3.90;;;2.63;;
4311;SDS011;2169;49.086;9.284;2022-08-25T02:31:06;3.30;;;2.93;;
4311;SDS011;2169;49.086;9.284;2022-08-25T02:33:32;3.57;;;3.27;;
4311;SDS011;2169;49.086;9.284;2022-08-25T02:35:59;5.07;;;3.60;;
4311;SDS011;2169;49.086;9.284;2022-08-25T02:38:27;7.80;;;4.50;;
4311;SDS011;2169;49.086;9.284;2022-08-25T02:40:55;4.60;;;3.57;;
4311;SDS011;2169;49.086;9.284;2022-08-25T02:43:23;4.70;;;3.93;;
4311;SDS011;2169;49.086;9.284;2022-08-25T02:45:52;6.00;;;4.03;;
4311;SDS011;2169;49.086;9.284;2022-08-25T02:48:19;4.03;;;3.63;;
4311;SDS011;2169;49.086;9.284;2022-08-25T02:50:47;5.67;;;4.10;;
4311;SDS011;2169;49.086;9.284;2022-08-25T02:53:15;4.03;;;3.73;;
4311;SDS011;2169;49.086;9.284;2022-08-25T02:55:42;4.70;;;2.93;;
4311;SDS011;2169;49.086;9.284;2022-08-25T02:58:09;3.70;;;3.40;;
4311;SDS011;2169;49.086;9.284;2022-08-25T03:00:36;4.73;;;4.33;;
4311;SDS011;2169;49.086;9.284;2022-08-25T03:03:05;5.60;;;3.90;;
4311;SDS011;2169;49.086;9.284;2022-08-25T03:05:32;6.50;;;4.13;;
4311;SDS011;2169;49.086;9.284;2022-08-25T03:07:59;8.63;;;5.30;;
4311;SDS011;2169;49.086;9.284;2022-08-25T03:10:26;5.00;;;2.87;;
4311;SDS011;2169;49.086;9.284;2022-08-25T03:12:53;8.53;;;4.80;;
4311;SDS011;2169;49.086;9.284;2022-08-25T03:15:19;6.70;;;4.53;;
4311;SDS011;2169;49.086;9.284;2022-08-25T03:17:49;6.13;;;3.80;;
4311;SDS011;2169;49.086;9.284;2022-08-25T03:20:18;6.60;;;3.80;;
4311;SDS011;2169;49.086;9.284;2022-08-25T03:22:46;5.60;;;4.00;;
4311;SDS011;2169;49.086;9.284;2022-08-25T03:28:34;10.67;;;3.63;;
4311;SDS011;2169;49.086;9.284;2022-08-25T03:31:01;5.80;;;3.97;;
4311;SDS011;2169;49.086;9.284;2022-08-25T03:33:29;4.30;;;3.77;;
4311;SDS011;2169;49.086;9.284;2022-08-25T03:35:58;10.00;;;3.87;;
4311;SDS011;2169;49.086;9.284;2022-08-25T03:38:25;3.37;;;3.17;;
4311;SDS011;2169;49.086;9.284;2022-08-25T03:40:52;7.73;;;4.07;;
4311;SDS011;2169;49.086;9.284;2022-08-25T03:43:19;3.57;;;3.27;;
4311;SDS011;2169;49.086;9.284;2022-08-25T03:45:47;4.43;;;4.03;;
4311;SDS011;2169;49.086;9.284;2022-08-25T03:48:14;3.53;;;3.30;;
4311;SDS011;2169;49.086;9.284;2022-08-25T03:50:44;8.23;;;4.77;;
4311;SDS011;2169;49.086;9.284;2022-08-25T03:53:14;4.43;;;4.03;;
4311;SDS011;2169;49.086;9.284;2022-08-25T03:55:41;9.50;;;4.30;;
4311;SDS011;2169;49.086;9.284;2022-08-25T03:58:08;9.40;;;4.53;;
4311;SDS011;2169;49.086;9.284;2022-08-25T04:00:35;4.07;;;3.27;;
4311;SDS011;2169;49.086;9.284;2022-08-25T04:03:01;13.10;;;3.93;;
4311;SDS011;2169;49.086;9.284;2022-08-25T04:05:28;5.60;;;4.17;;
4311;SDS011;2169;49.086;9.284;2022-08-25T04:07:55;6.10;;;4.17;;
4311;SDS011;2169;49.086;9.284;2022-08-25T04:10:23;6.60;;;3.67;;
4311;SDS011;2169;49.086;9.284;2022-08-25T04:12:50;5.43;;;3.70;;
4311;SDS011;2169;49.086;9.284;2022-08-25T04:15:17;4.50;;;4.10;;
4311;SDS011;2169;49.086;9.284;2022-08-25T04:17:44;5.20;;;3.73;;
4311;SDS011;2169;49.086;9.284;2022-08-25T04:20:11;5.33;;;3.97;;
4311;SDS011;2169;49.086;9.284;2022-08-25T04:22:38;5.03;;;3.87;;
4311;SDS011;2169;49.086;9.284;2022-08-25T04:25:05;5.53;;;3.90;;
4311;SDS011;2169;49.086;9.284;2022-08-25T04:27:34;5.40;;;3.97;;
4311;SDS011;2169;49.086;9.284;2022-08-25T04:30:03;8.90;;;4.57;;
4311;SDS011;2169;49.086;9.284;2022-08-25T04:32:30;4.33;;;3.90;;
4311;SDS011;2169;49.086;9.284;2022-08-25T04:34:57;5.73;;;4.00;;
4311;SDS011;2169;49.086;9.284;2022-08-25T04:37:24;6.80;;;4.77;;
4311;SDS011;2169;49.086;9.284;2022-08-25T04:39:51;5.73;;;4.17;;
4311;SDS011;2169;49.086;9.284;2022-08-25T04:42:18;7.33;;;5.43;;
4311;SDS011;2169;49.086;9.284;2022-08-25T04:44:47;4.50;;;4.07;;
4311;SDS011;2169;49.086;9.284;2022-08-25T04:47:14;6.83;;;5.47;;
4311;SDS011;2169;49.086;9.284;2022-08-25T04:49:41;4.93;;;4.40;;
4311;SDS011;2169;49.086;9.284;2022-08-25T04:52:09;5.90;;;4.87;;
4311;SDS011;2169;49.086;9.284;2022-08-25T04:54:38;19.00;;;4.27;;
4311;SDS011;2169;49.086;9.284;2022-08-25T04:57:05;6.87;;;4.17;;
4311;SDS011;2169;49.086;9.284;2022-08-25T04:59:32;5.00;;;4.17;;
4311;SDS011;2169;49.086;9.284;2022-08-25T05:02:01;11.00;;;4.83;;
4311;SDS011;2169;49.086;9.284;2022-08-25T05:04:29;8.17;;;5.17;;
4311;SDS011;2169;49.086;9.284;2022-08-25T05:06:57;8.40;;;4.90;;
4311;SDS011;2169;49.086;9.284;2022-08-25T05:09:24;9.00;;;5.33;;
4311;SDS011;2169;49.086;9.284;2022-08-25T05:11:55;5.97;;;4.00;;
4311;SDS011;2169;49.086;9.284;2022-08-25T05:14:22;6.43;;;4.50;;
4311;SDS011;2169;49.086;9.284;2022-08-25T05:16:49;5.60;;;3.43;;
4311;SDS011;2169;49.086;9.284;2022-08-25T05:19:18;5.90;;;5.23;;
4311;SDS011;2169;49.086;9.284;2022-08-25T05:21:45;6.70;;;4.70;;
4311;SDS011;2169;49.086;9.284;2022-08-25T05:24:12;11.03;;;5.10;;
4311;SDS011;2169;49.086;9.284;2022-08-25T05:26:39;6.77;;;4.87;;
4311;SDS011;2169;49.086;9.284;2022-08-25T05:29:07;8.60;;;4.80;;
4311;SDS011;2169;49.086;9.284;2022-08-25T05:31:35;8.80;;;4.90;;
4311;SDS011;2169;49.086;9.284;2022-08-25T05:34:04;6.37;;;4.33;;
4311;SDS011;2169;49.086;9.284;2022-08-25T05:36:33;6.47;;;5.27;;
4311;SDS011;2169;49.086;9.284;2022-08-25T05:39:01;9.10;;;4.17;;
4311;SDS011;2169;49.086;9.284;2022-08-25T05:41:29;7.90;;;5.37;;
4311;SDS011;2169;49.086;9.284;2022-08-25T05:43:57;5.90;;;4.13;;
4311;SDS011;2169;49.086;9.284;2022-08-25T05:46:24;7.37;;;5.80;;
4311;SDS011;2169;49.086;9.284;2022-08-25T05:48:51;6.50;;;5.13;;
4311;SDS011;2169;49.086;9.284;2022-08-25T05:51:19;13.27;;;6.67;;
4311;SDS011;2169;49.086;9.284;2022-08-25T05:53:48;9.97;;;4.80;;
4311;SDS011;2169;49.086;9.284;2022-08-25T05:56:17;5.90;;;5.10;;
4311;SDS011;2169;49.086;9.284;2022-08-25T05:58:44;19.00;;;5.70;;
4311;SDS011;2169;49.086;9.284;2022-08-25T06:01:19;6.97;;;5.30;;
4311;SDS011;2169;49.086;9.284;2022-08-25T06:04:06;9.93;;;5.50;;
4311;SDS011;2169;49.086;9.284;2022-08-25T06:06:33;8.87;;;5.73;;
4311;SDS011;2169;49.086;9.284;2022-08-25T06:09:01;8.53;;;5.40;;
4311;SDS011;2169;49.086;9.284;2022-08-25T06:11:32;8.80;;;4.90;;
4311;SDS011;2169;49.086;9.284;2022-08-25T06:14:00;8.37;;;4.83;;
4311;SDS011;2169;49.086;9.284;2022-08-25T06:16:27;9.90;;;5.47;;
4311;SDS011;2169;49.086;9.284;2022-08-25T06:18:53;8.10;;;5.87;;
4311;SDS011;2169;49.086;9.284;2022-08-25T06:21:20;9.60;;;5.10;;
4311;SDS011;2169;49.086;9.284;2022-08-25T06:23:47;9.13;;;5.93;;
4311;SDS011;2169;49.086;9.284;2022-08-25T06:26:15;12.40;;;8.00;;
4311;SDS011;2169;49.086;9.284;2022-08-25T06:28:42;11.33;;;7.00;;
4311;SDS011;2169;49.086;9.284;2022-08-25T06:31:09;9.37;;;4.70;;
4311;SDS011;2169;49.086;9.284;2022-08-25T06:33:36;14.57;;;5.57;;
4311;SDS011;2169;49.086;9.284;2022-08-25T06:36:02;9.57;;;5.40;;
4311;SDS011;2169;49.086;9.284;2022-08-25T06:38:30;6.43;;;5.23;;
4311;SDS011;2169;49.086;9.284;2022-08-25T06:40:57;16.93;;;6.80;;
4311;SDS011;2169;49.086;9.284;2022-08-25T06:43:31;7.70;;;5.60;;
4311;SDS011;2169;49.086;9.284;2022-08-25T06:46:06;6.87;;;5.70;;
4311;SDS011;2169;49.086;9.284;2022-08-25T06:48:34;13.30;;;5.03;;
4311;SDS011;2169;49.086;9.284;2022-08-25T06:51:04;8.23;;;5.00;;
4311;SDS011;2169;49.086;9.284;2022-08-25T06:53:32;8.33;;;5.47;;
4311;SDS011;2169;49.086;9.284;2022-08-25T06:56:00;6.60;;;4.73;;
4311;SDS011;2169;49.086;9.284;2022-08-25T06:58:27;13.23;;;4.87;;
4311;SDS011;2169;49.086;9.284;2022-08-25T07:00:55;8.77;;;6.23;;
4311;SDS011;2169;49.086;9.284;2022-08-25T07:03:22;6.90;;;4.07;;
4311;SDS011;2169;49.086;9.284;2022-08-25T07:05:49;5.80;;;4.60;;
4311;SDS011;2169;49.086;9.284;2022-08-25T07:08:17;10.77;;;5.13;;
4311;SDS011;2169;49.086;9.284;2022-08-25T07:10:44;6.53;;;5.13;;
4311;SDS011;2169;49.086;9.284;2022-08-25T07:13:11;9.37;;;4.57;;
4311;SDS011;2169;49.086;9.284;2022-08-25T07:15:39;5.30;;;4.80;;
4311;SDS011;2169;49.086;9.284;2022-08-25T07:18:11;5.60;;;5.03;;
4311;SDS011;2169;49.086;9.284;2022-08-25T07:20:39;8.87;;;4.77;;
4311;SDS011;2169;49.086;9.284;2022-08-25T07:23:06;5.93;;;4.10;;
4311;SDS011;2169;49.086;9.284;2022-08-25T07:25:33;7.10;;;4.70;;
4311;SDS011;2169;49.086;9.284;2022-08-25T07:28:01;4.63;;;4.13;;
4311;SDS011;2169;49.086;9.284;2022-08-25T07:30:29;4.27;;;3.87;;
4311;SDS011;2169;49.086;9.284;2022-08-25T07:32:56;7.07;;;4.17;;
4311;SDS011;2169;49.086;9.284;2022-08-25T07:35:25;4.40;;;4.00;;
4311;SDS011;2169;49.086;9.284;2022-08-25T07:37:52;3.87;;;3.50;;
4311;SDS011;2169;49.086;9.284;2022-08-25T07:40:21;3.80;;;3.50;;
4311;SDS011;2169;49.086;9.284;2022-08-25T07:42:53;4.53;;;3.50;;
4311;SDS011;2169;49.086;9.284;2022-08-25T07:45:23;6.20;;;4.83;;
4311;SDS011;2169;49.086;9.284;2022-08-25T07:47:54;4.80;;;4.33;;
4311;SDS011;2169;49.086;9.284;2022-08-25T07:50:21;3.27;;;2.97;;
4311;SDS011;2169;49.086;9.284;2022-08-25T07:52:50;6.27;;;3.70;;
4311;SDS011;2169;49.086;9.284;2022-08-25T07:55:17;4.57;;;3.77;;
4311;SDS011;2169;49.086;9.284;2022-08-25T07:57:44;2.90;;;2.70;;
4311;SDS011;2169;49.086;9.284;2022-08-25T08:00:12;7.17;;;3.40;;
4311;SDS011;2169;49.086;9.284;2022-08-25T08:02:41;3.50;;;3.20;;
4311;SDS011;2169;49.086;9.284;2022-08-25T08:05:09;6.67;;;4.43;;
4311;SDS011;2169;49.086;9.284;2022-08-25T08:07:37;3.60;;;3.30;;
4311;SDS011;2169;49.086;9.284;2022-08-25T08:10:06;3.13;;;2.80;;
4311;SDS011;2169;49.086;9.284;2022-08-25T08:12:35;4.53;;;2.73;;
4311;SDS011;2169;49.086;9.284;2022-08-25T08:15:02;3.33;;;2.93;;
4311;SDS011;2169;49.086;9.284;2022-08-25T08:17:29;3.23;;;2.77;;
4311;SDS011;2169;49.086;9.284;2022-08-25T08:19:56;8.53;;;3.80;;
4311;SDS011;2169;49.086;9.284;2022-08-25T08:22:23;4.70;;;3.97;;
4311;SDS011;2169;49.086;9.284;2022-08-25T08:24:51;4.10;;;2.90;;
4311;SDS011;2169;49.086;9.284;2022-08-25T08:27:19;3.37;;;3.07;;
4311;SDS011;2169;49.086;9.284;2022-08-25T08:29:46;3.33;;;3.00;;
4311;SDS011;2169;49.086;9.284;2022-08-25T08:32:14;4.07;;;3.70;;
4311;SDS011;2169;49.086;9.284;2022-08-25T08:34:41;4.03;;;3.60;;
4311;SDS011;2169;49.086;9.284;2022-08-25T08:37:08;2.47;;;2.10;;
4311;SDS011;2169;49.086;9.284;2022-08-25T08:39:35;7.07;;;3.63;;
4311;SDS011;2169;49.086;9.284;2022-08-25T08:42:06;3.10;;;2.90;;
4311;SDS011;2169;49.086;9.284;2022-08-25T08:45:01;3.27;;;3.07;;
4311;SDS011;2169;49.086;9.284;2022-08-25T08:47:36;5.13;;;3.10;;
4311;SDS011;2169;49.086;9.284;2022-08-25T08:50:17;4.00;;;3.67;;
4311;SDS011;2169;49.086;9.284;2022-08-25T08:52:57;5.90;;;2.97;;
4311;SDS011;2169;49.086;9.284;2022-08-25T08:55:29;3.67;;;3.37;;
4311;SDS011;2169;49.086;9.284;2022-08-25T08:57:58;4.60;;;2.67;;
4311;SDS011;2169;49.086;9.284;2022-08-25T09:00:29;2.80;;;2.60;;
4311;SDS011;2169;49.086;9.284;2022-08-25T09:02:59;15.20;;;2.20;;
4311;SDS011;2169;49.086;9.284;2022-08-25T09:05:31;2.60;;;2.40;;
4311;SDS011;2169;49.086;9.284;2022-08-25T09:08:03;3.00;;;2.70;;
4311;SDS011;2169;49.086;9.284;2022-08-25T09:10:38;3.87;;;2.97;;
4311;SDS011;2169;49.086;9.284;2022-08-25T09:13:12;2.10;;;1.97;;
4311;SDS011;2169;49.086;9.284;2022-08-25T09:15:49;11.00;;;2.67;;
4311;SDS011;2169;49.086;9.284;2022-08-25T09:18:40;2.10;;;1.93;;
4311;SDS011;2169;49.086;9.284;2022-08-25T09:21:19;3.53;;;2.30;;
4311;SDS011;2169;49.086;9.284;2022-08-25T09:24:06;5.57;;;2.30;;
4311;SDS011;2169;49.086;9.284;2022-08-25T09:26:48;6.10;;;2.90;;
4311;SDS011;2169;49.086;9.284;2022-08-25T09:29:24;3.63;;;3.43;;
4311;SDS011;2169;49.086;9.284;2022-08-25T09:31:56;2.83;;;2.60;;
4311;SDS011;2169;49.086;9.284;2022-08-25T09:34:27;4.33;;;2.00;;
4311;SDS011;2169;49.086;9.284;2022-08-25T09:36:59;5.10;;;2.93;;
4311;SDS011;2169;49.086;9.284;2022-08-25T09:39:27;2.03;;;1.70;;
4311;SDS011;2169;49.086;9.284;2022-08-25T09:41:55;5.53;;;2.40;;
4311;SDS011;2169;49.086;9.284;2022-08-25T09:44:24;3.00;;;2.10;;
4311;SDS011;2169;49.086;9.284;2022-08-25T09:46:54;2.43;;;2.23;;
4311;SDS011;2169;49.086;9.284;2022-08-25T09:49:31;2.03;;;1.87;;
4311;SDS011;2169;49.086;9.284;2022-08-25T09:52:21;3.33;;;1.80;;
4311;SDS011;2169;49.086;9.284;2022-08-25T09:54:57;3.20;;;1.83;;
4311;SDS011;2169;49.086;9.284;2022-08-25T09:57:28;5.73;;;2.47;;
4311;SDS011;2169;49.086;9.284;2022-08-25T10:00:08;3.03;;;2.37;;
4311;SDS011;2169;49.086;9.284;2022-08-25T10:03:04;3.30;;;2.40;;
4311;SDS011;2169;49.086;9.284;2022-08-25T10:05:33;3.77;;;3.50;;
4311;SDS011;2169;49.086;9.284;2022-08-25T10:08:09;2.37;;;2.00;;
4311;SDS011;2169;49.086;9.284;2022-08-25T10:10:38;1.50;;;1.40;;
4311;SDS011;2169;49.086;9.284;2022-08-25T10:13:11;2.17;;;2.07;;
4311;SDS011;2169;49.086;9.284;2022-08-25T10:15:40;8.87;;;2.30;;
4311;SDS011;2169;49.086;9.284;2022-08-25T10:18:18;2.50;;;2.27;;
4311;SDS011;2169;49.086;9.284;2022-08-25T10:23:40;2.80;;;2.60;;
4311;SDS011;2169;49.086;9.284;2022-08-25T10:26:16;1.97;;;1.87;;
4311;SDS011;2169;49.086;9.284;2022-08-25T10:28:58;2.70;;;2.50;;
4311;SDS011;2169;49.086;9.284;2022-08-25T10:31:32;2.03;;;1.43;;
4311;SDS011;2169;49.086;9.284;2022-08-25T10:34:10;2.07;;;1.97;;
4311;SDS011;2169;49.086;9.284;2022-08-25T10:36:49;2.33;;;2.00;;
4311;SDS011;2169;49.086;9.284;2022-08-25T10:39:28;2.93;;;2.20;;
4311;SDS011;2169;49.086;9.284;2022-08-25T10:42:06;2.33;;;2.17;;
4311;SDS011;2169;49.086;9.284;2022-08-25T10:44:45;5.30;;;2.67;;
4311;SDS011;2169;49.086;9.284;2022-08-25T10:47:43;3.83;;;2.37;;
4311;SDS011;2169;49.086;9.284;2022-08-25T10:50:26;3.77;;;2.10;;
4311;SDS011;2169;49.086;9.284;2022-08-25T10:55:48;5.30;;;2.30;;
4311;SDS011;2169;49.086;9.284;2022-08-25T10:58:27;5.20;;;2.77;;
4311;SDS011;2169;49.086;9.284;2022-08-25T11:01:09;2.57;;;2.20;;
4311;SDS011;2169;49.086;9.284;2022-08-25T11:03:43;2.77;;;2.07;;
4311;SDS011;2169;49.086;9.284;2022-08-25T11:06:19;3.30;;;3.10;;
4311;SDS011;2169;49.086;9.284;2022-08-25T11:08:51;1.73;;;1.63;;
4311;SDS011;2169;49.086;9.284;2022-08-25T11:11:23;2.13;;;1.50;;
4311;SDS011;2169;49.086;9.284;2022-08-25T11:13:57;1.90;;;1.80;;
4311;SDS011;2169;49.086;9.284;2022-08-25T11:16:32;2.83;;;2.00;;
4311;SDS011;2169;49.086;9.284;2022-08-25T11:19:05;2.53;;;2.37;;
4311;SDS011;2169;49.086;9.284;2022-08-25T11:21:39;2.53;;;2.33;;
4311;SDS011;2169;49.086;9.284;2022-08-25T11:24:15;2.00;;;1.40;;
4311;SDS011;2169;49.086;9.284;2022-08-25T11:26:55;2.23;;;2.03;;
4311;SDS011;2169;49.086;9.284;2022-08-25T11:29:24;2.43;;;1.67;;
4311;SDS011;2169;49.086;9.284;2022-08-25T11:31:57;2.47;;;2.13;;
4311;SDS011;2169;49.086;9.284;2022-08-25T11:34:26;2.00;;;1.83;;
4311;SDS011;2169;49.086;9.284;2022-08-25T11:36:58;2.50;;;1.73;;
4311;SDS011;2169;49.086;9.284;2022-08-25T11:39:42;2.47;;;1.97;;
4311;SDS011;2169;49.086;9.284;2022-08-25T11:42:31;2.90;;;1.77;;
4311;SDS011;2169;49.086;9.284;2022-08-25T11:45:11;3.53;;;2.67;;
4311;SDS011;2169;49.086;9.284;2022-08-25T11:47:53;1.70;;;1.60;;
4311;SDS011;2169;49.086;9.284;2022-08-25T11:50:32;1.83;;;1.73;;
4311;SDS011;2169;49.086;9.284;2022-08-25T11:53:17;1.60;;;1.50;;
4311;SDS011;2169;49.086;9.284;2022-08-25T11:55:48;6.63;;;1.53;;
4311;SDS011;2169;49.086;9.284;2022-08-25T11:58:31;2.03;;;1.93;;
4311;SDS011;2169;49.086;9.284;2022-08-25T12:01:04;1.63;;;1.53;;
4311;SDS011;2169;49.086;9.284;2022-08-25T12:03:48;2.87;;;2.00;;
4311;SDS011;2169;49.086;9.284;2022-08-25T12:06:19;3.00;;;2.20;;
4311;SDS011;2169;49.086;9.284;2022-08-25T12:08:51;2.03;;;1.57;;
4311;SDS011;2169;49.086;9.284;2022-08-25T12:11:47;4.00;;;2.60;;
4311;SDS011;2169;49.086;9.284;2022-08-25T12:14:34;2.03;;;1.93;;
4311;SDS011;2169;49.086;9.284;2022-08-25T12:17:19;1.97;;;1.77;;
4311;SDS011;2169;49.086;9.284;2022-08-25T12:19:58;1.93;;;1.67;;
4311;SDS011;2169;49.086;9.284;2022-08-25T12:28:39;2.87;;;1.53;;
4311;SDS011;2169;49.086;9.284;2022-08-25T12:34:08;3.87;;;2.10;;
4311;SDS011;2169;49.086;9.284;2022-08-25T12:36:54;1.73;;;1.63;;
4311;SDS011;2169;49.086;9.284;2022-08-25T12:39:28;2.80;;;1.57;;
4311;SDS011;2169;49.086;9.284;2022-08-25T12:42:03;1.63;;;1.43;;
4311;SDS011;2169;49.086;9.284;2022-08-25T12:44:36;2.03;;;1.93;;
4311;SDS011;2169;49.086;9.284;2022-08-25T12:47:10;1.40;;;1.30;;
4311;SDS011;2169;49.086;9.284;2022-08-25T12:52:58;2.57;;;2.20;;
4311;SDS011;2169;49.086;9.284;2022-08-25T12:55:34;2.10;;;2.00;;
4311;SDS011;2169;49.086;9.284;2022-08-25T12:58:06;2.00;;;1.80;;
4311;SDS011;2169;49.086;9.284;2022-08-25T13:00:36;2.53;;;2.40;;
4311;SDS011;2169;49.086;9.284;2022-08-25T13:03:24;2.27;;;2.07;;
4311;SDS011;2169;49.086;9.284;2022-08-25T13:09:06;2.00;;;1.87;;
4311;SDS011;2169;49.086;9.284;2022-08-25T13:11:50;2.00;;;1.40;;
4311;SDS011;2169;49.086;9.284;2022-08-25T13:14:27;3.20;;;1.40;;
4311;SDS011;2169;49.086;9.284;2022-08-25T13:17:01;1.67;;;1.30;;
4311;SDS011;2169;49.086;9.284;2022-08-25T13:19:28;1.77;;;1.67;;
4311;SDS011;2169;49.086;9.284;2022-08-25T13:21:55;1.50;;;1.40;;
4311;SDS011;2169;49.086;9.284;2022-08-25T13:24:25;1.20;;;1.00;;
4311;SDS011;2169;49.086;9.284;2022-08-25T13:26:54;5.57;;;1.60;;
4311;SDS011;2169;49.086;9.284;2022-08-25T13:29:23;1.57;;;1.47;;
4311;SDS011;2169;49.086;9.284;2022-08-25T13:31:54;1.87;;;1.77;;
4311;SDS011;2169;49.086;9.284;2022-08-25T13:34:30;4.30;;;1.10;;
4311;SDS011;2169;49.086;9.284;2022-08-25T13:37:03;1.97;;;1.40;;
4311;SDS011;2169;49.086;9.284;2022-08-25T13:39:49;1.70;;;1.60;;
4311;SDS011;2169;49.086;9.284;2022-08-25T13:42:16;4.47;;;2.23;;
4311;SDS011;2169;49.086;9.284;2022-08-25T13:44:45;1.63;;;1.50;;
4311;SDS011;2169;49.086;9.284;2022-08-25T13:47:13;2.40;;;1.90;;
4311;SDS011;2169;49.086;9.284;2022-08-25T13:49:44;8.67;;;3.60;;
4311;SDS011;2169;49.086;9.284;2022-08-25T13:52:14;1.60;;;1.50;;
4311;SDS011;2169;49.086;9.284;2022-08-25T13:54:49;1.33;;;1.23;;
4311;SDS011;2169;49.086;9.284;2022-08-25T13:57:24;3.63;;;1.60;;
4311;SDS011;2169;49.086;9.284;2022-08-25T13:59:55;1.43;;;1.33;;
4311;SDS011;2169;49.086;9.284;2022-08-25T14:02:42;11.73;;;1.60;;
4311;SDS011;2169;49.086;9.284;2022-08-25T14:05:11;4.07;;;1.93;;
4311;SDS011;2169;49.086;9.284;2022-08-25T14:07:51;2.30;;;2.10;;
4311;SDS011;2169;49.086;9.284;2022-08-25T14:10:30;1.50;;;1.23;;
4311;SDS011;2169;49.086;9.284;2022-08-25T14:13:10;1.77;;;1.67;;
4311;SDS011;2169;49.086;9.284;2022-08-25T14:15:41;2.07;;;1.87;;
4311;SDS011;2169;49.086;9.284;2022-08-25T14:18:12;7.37;;;1.67;;
4311;SDS011;2169;49.086;9.284;2022-08-25T14:20:47;2.13;;;1.63;;
4311;SDS011;2169;49.086;9.284;2022-08-25T14:23:17;3.67;;;1.80;;
4311;SDS011;2169;49.086;9.284;2022-08-25T14:25:46;1.80;;;1.70;;
4311;SDS011;2169;49.086;9.284;2022-08-25T14:28:15;2.13;;;1.93;;
4311;SDS011;2169;49.086;9.284;2022-08-25T14:30:47;3.40;;;1.80;;
4311;SDS011;2169;49.086;9.284;2022-08-25T14:33:16;2.03;;;1.93;;
4311;SDS011;2169;49.086;9.284;2022-08-25T14:35:45;2.97;;;1.93;;
4311;SDS011;2169;49.086;9.284;2022-08-25T14:38:14;1.73;;;1.63;;
4311;SDS011;2169;49.086;9.284;2022-08-25T14:40:42;1.43;;;1.33;;
4311;SDS011;2169;49.086;9.284;2022-08-25T14:43:09;1.47;;;1.47;;
4311;SDS011;2169;49.086;9.284;2022-08-25T14:45:38;2.03;;;1.53;;
4311;SDS011;2169;49.086;9.284;2022-08-25T14:48:08;1.30;;;1.20;;
4311;SDS011;2169;49.086;9.284;2022-08-25T14:50:39;2.60;;;2.13;;
4311;SDS011;2169;49.086;9.284;2022-08-25T14:53:06;1.40;;;1.27;;
4311;SDS011;2169;49.086;9.284;2022-08-25T14:55:33;9.10;;;2.43;;
4311;SDS011;2169;49.086;9.284;2022-08-25T15:01:22;1.20;;;1.10;;
4311;SDS011;2169;49.086;9.284;2022-08-25T15:03:52;5.00;;;1.33;;
4311;SDS011;2169;49.086;9.284;2022-08-25T15:06:22;4.53;;;1.80;;
4311;SDS011;2169;49.086;9.284;2022-08-25T15:08:48;14.73;;;1.97;;
4311;SDS011;2169;49.086;9.284;2022-08-25T15:11:35;2.03;;;1.93;;
4311;SDS011;2169;49.086;9.284;2022-08-25T15:14:03;3.03;;;1.80;;
4311;SDS011;2169;49.086;9.284;2022-08-25T15:16:31;4.33;;;1.90;;
4311;SDS011;2169;49.086;9.284;2022-08-25T15:19:14;2.53;;;1.63;;
4311;SDS011;2169;49.086;9.284;2022-08-25T15:21:44;1.73;;;1.63;;
4311;SDS011;2169;49.086;9.284;2022-08-25T15:24:12;3.37;;;1.60;;
4311;SDS011;2169;49.086;9.284;2022-08-25T15:26:41;2.90;;;1.90;;
4311;SDS011;2169;49.086;9.284;2022-08-25T15:29:10;2.40;;;1.27;;
4311;SDS011;2169;49.086;9.284;2022-08-25T15:31:37;1.40;;;1.30;;
4311;SDS011;2169;49.086;9.284;2022-08-25T15:34:06;2.30;;;1.20;;
4311;SDS011;2169;49.086;9.284;2022-08-25T15:36:34;2.90;;;1.23;;
4311;SDS011;2169;49.086;9.284;2022-08-25T15:39:02;1.73;;;1.50;;
4311;SDS011;2169;49.086;9.284;2022-08-25T15:41:29;2.13;;;1.80;;
4311;SDS011;2169;49.086;9.284;2022-08-25T15:43:59;2.43;;;2.20;;
4311;SDS011;2169;49.086;9.284;2022-08-25T15:46:28;1.87;;;1.77;;
4311;SDS011;2169;49.086;9.284;2022-08-25T15:48:58;3.73;;;1.87;;
4311;SDS011;2169;49.086;9.284;2022-08-25T15:51:26;1.50;;;1.40;;
4311;SDS011;2169;49.086;9.284;2022-08-25T15:53:54;1.03;;;1.03;;
4311;SDS011;2169;49.086;9.284;2022-08-25T15:56:43;4.00;;;1.87;;
4311;SDS011;2169;49.086;9.284;2022-08-25T15:59:11;1.80;;;1.70;;
4311;SDS011;2169;49.086;9.284;2022-08-25T16:01:38;1.10;;;1.00;;
4311;SDS011;2169;49.086;9.284;2022-08-25T16:04:07;1.60;;;1.20;;
4311;SDS011;2169;49.086;9.284;2022-08-25T16:06:36;3.30;;;2.27;;